createdAt,value
2022-12-03T00:00:12.189Z,18.58
2022-12-03T00:02:40.986Z,17.92
2022-12-03T00:05:08.970Z,17.85
2022-12-03T00:07:36.609Z,17.63
2022-12-03T00:10:04.703Z,17.92
2022-12-03T00:12:32.232Z,17.55
2022-12-03T00:14:59.845Z,16.75
2022-12-03T00:17:27.581Z,17.95
2022-12-03T00:19:55.124Z,17.45
2022-12-03T00:22:22.675Z,16.63
2022-12-03T00:24:50.485Z,17.50
2022-12-03T00:27:18.127Z,16.33
2022-12-03T00:29:45.848Z,17.45
2022-12-03T00:32:14.127Z,18.15
2022-12-03T00:34:41.772Z,17.23
2022-12-03T00:37:09.509Z,17.75
2022-12-03T00:39:37.033Z,16.58
2022-12-03T00:42:04.781Z,17.00
2022-12-03T00:44:32.434Z,17.20
2022-12-03T00:47:00.100Z,16.67
2022-12-03T00:49:27.757Z,16.83
2022-12-03T00:51:55.286Z,16.83
2022-12-03T00:54:28.336Z,16.40
2022-12-03T00:56:59.055Z,16.63
2022-12-03T00:59:26.736Z,16.60
2022-12-03T01:01:54.342Z,16.13
2022-12-03T01:04:22.259Z,15.82
2022-12-03T01:06:49.971Z,17.08
2022-12-03T01:09:17.536Z,16.92
2022-12-03T01:11:45.140Z,16.35
2022-12-03T01:14:13.800Z,16.10
2022-12-03T01:16:41.830Z,17.27
2022-12-03T01:19:10.507Z,16.20
2022-12-03T01:21:38.327Z,15.73
2022-12-03T01:24:06.105Z,16.23
2022-12-03T01:26:33.802Z,16.17
2022-12-03T01:29:01.312Z,16.17
2022-12-03T01:31:47.619Z,15.98
2022-12-03T01:34:15.229Z,15.80
2022-12-03T01:36:42.739Z,15.63
2022-12-03T01:39:10.305Z,15.32
2022-12-03T01:41:38.458Z,14.98
2022-12-03T01:44:11.738Z,16.25
2022-12-03T01:46:40.065Z,15.15
2022-12-03T01:49:10.038Z,15.65
2022-12-03T01:51:37.628Z,15.73
2022-12-03T01:54:05.321Z,15.65
2022-12-03T01:56:32.922Z,15.20
2022-12-03T01:59:00.462Z,16.05
2022-12-03T02:01:28.288Z,16.52
2022-12-03T02:03:55.900Z,16.27
2022-12-03T02:06:23.629Z,15.98
2022-12-03T02:08:51.208Z,15.90
2022-12-03T02:11:18.721Z,16.13
2022-12-03T02:13:47.248Z,15.27
2022-12-03T02:16:14.949Z,14.70
2022-12-03T02:18:46.295Z,14.60
2022-12-03T02:21:16.961Z,14.25
2022-12-03T02:23:47.607Z,15.10
2022-12-03T02:26:15.172Z,15.15
2022-12-03T02:28:42.780Z,13.88
2022-12-03T02:31:10.400Z,14.77
2022-12-03T02:33:38.412Z,14.77
2022-12-03T02:36:06.218Z,13.88
2022-12-03T02:38:34.929Z,15.15
2022-12-03T02:41:07.683Z,14.65
2022-12-03T02:43:35.278Z,14.38
2022-12-03T02:46:04.424Z,14.13
2022-12-03T02:48:39.111Z,14.63
2022-12-03T02:51:08.784Z,15.75
2022-12-03T02:53:42.391Z,15.23
2022-12-03T02:56:12.421Z,14.93
2022-12-03T02:58:40.862Z,15.15
2022-12-03T03:01:08.997Z,15.77
2022-12-03T03:03:37.661Z,14.23
2022-12-03T03:06:07.074Z,15.75
2022-12-03T03:08:35.031Z,16.38
2022-12-03T03:11:03.025Z,14.80
2022-12-03T03:13:31.815Z,14.80
2022-12-03T03:15:59.713Z,15.43
2022-12-03T03:18:27.293Z,16.05
2022-12-03T03:20:54.875Z,15.50
2022-12-03T03:23:23.347Z,14.77
2022-12-03T03:25:54.983Z,15.10
2022-12-03T03:28:23.100Z,15.05
2022-12-03T03:30:51.366Z,14.68
2022-12-03T03:33:19.058Z,14.73
2022-12-03T03:35:47.710Z,14.85
2022-12-03T03:38:16.220Z,14.05
2022-12-03T03:40:44.373Z,15.00
2022-12-03T03:43:12.960Z,15.02
2022-12-03T03:45:40.567Z,14.85
2022-12-03T03:48:08.163Z,15.18
2022-12-03T03:50:35.982Z,15.38
2022-12-03T03:53:04.244Z,15.48
2022-12-03T03:55:32.494Z,15.55
2022-12-03T03:58:00.090Z,16.30
2022-12-03T04:00:28.904Z,15.77
2022-12-03T04:02:56.635Z,16.63
2022-12-03T04:05:24.806Z,17.30
2022-12-03T04:07:52.585Z,16.92
2022-12-03T04:10:39.169Z,16.00
2022-12-03T04:13:06.822Z,16.38
2022-12-03T04:15:37.522Z,16.35
2022-12-03T04:18:23.988Z,16.10
2022-12-03T04:20:51.515Z,17.55
2022-12-03T04:23:19.039Z,17.67
2022-12-03T04:26:05.484Z,17.05
2022-12-03T04:28:51.564Z,15.90
2022-12-03T04:31:37.878Z,15.30
2022-12-03T04:34:24.220Z,16.75
2022-12-03T04:36:51.825Z,17.08
2022-12-03T04:39:19.500Z,16.77
2022-12-03T04:41:47.308Z,16.95
2022-12-03T04:44:33.349Z,16.88
2022-12-03T04:47:01.647Z,16.60
2022-12-03T04:49:29.221Z,15.82
2022-12-03T04:51:56.853Z,15.65
2022-12-03T04:54:24.495Z,15.82
2022-12-03T04:56:52.199Z,15.98
2022-12-03T04:59:20.046Z,15.68
2022-12-03T05:01:47.712Z,15.73
2022-12-03T05:04:15.793Z,15.05
2022-12-03T05:06:43.601Z,15.68
2022-12-03T05:09:11.698Z,15.05
2022-12-03T05:11:39.404Z,15.18
2022-12-03T05:14:06.954Z,16.30
2022-12-03T05:16:34.655Z,16.17
2022-12-03T05:19:02.658Z,16.45
2022-12-03T05:21:30.265Z,15.30
2022-12-03T05:23:57.863Z,15.85
2022-12-03T05:26:25.562Z,16.02
2022-12-03T05:28:53.113Z,14.63
2022-12-03T05:31:20.821Z,15.75
2022-12-03T05:33:51.509Z,14.90
2022-12-03T05:36:19.059Z,15.63
2022-12-03T05:38:46.582Z,14.65
2022-12-03T05:41:32.927Z,14.65
2022-12-03T05:44:00.478Z,13.55
2022-12-03T05:46:28.135Z,13.90
2022-12-03T05:48:55.889Z,13.30
2022-12-03T05:51:23.419Z,11.90
2022-12-03T05:53:51.004Z,11.00
2022-12-03T05:56:18.605Z,9.05
2022-12-03T05:58:46.181Z,7.05
2022-12-03T06:01:13.728Z,6.63
2022-12-03T06:03:41.414Z,6.72
2022-12-03T06:06:09.019Z,5.32
2022-12-03T06:08:36.606Z,5.13
2022-12-03T06:11:04.316Z,5.13
2022-12-03T06:13:31.899Z,4.85
2022-12-03T06:15:59.495Z,4.88
2022-12-03T06:18:27.179Z,4.47
2022-12-03T06:20:54.744Z,4.63
2022-12-03T06:23:22.360Z,4.82
2022-12-03T06:25:50.256Z,5.00
2022-12-03T06:28:17.756Z,5.10
2022-12-03T06:30:45.433Z,5.13
2022-12-03T06:33:12.995Z,4.53
2022-12-03T06:35:40.682Z,4.70
2022-12-03T06:38:08.207Z,4.28
2022-12-03T06:40:38.245Z,5.30
2022-12-03T06:43:05.919Z,4.70
2022-12-03T06:45:33.423Z,5.22
2022-12-03T06:48:00.994Z,5.38
2022-12-03T06:50:28.536Z,5.43
2022-12-03T06:52:56.101Z,5.43
2022-12-03T06:55:23.697Z,4.97
2022-12-03T06:57:51.232Z,4.63
2022-12-03T07:00:19.089Z,5.20
2022-12-03T07:02:47.128Z,5.60
2022-12-03T07:05:14.984Z,6.10
2022-12-03T07:07:42.571Z,5.65
2022-12-03T07:10:10.305Z,5.22
2022-12-03T07:12:37.928Z,5.13
2022-12-03T07:15:05.663Z,4.93
2022-12-03T07:17:33.293Z,5.05
2022-12-03T07:20:00.881Z,5.15
2022-12-03T07:22:28.406Z,4.82
2022-12-03T07:24:56.311Z,4.50
2022-12-03T07:27:24.035Z,5.38
2022-12-03T07:29:51.590Z,5.40
2022-12-03T07:32:19.152Z,5.60
2022-12-03T07:34:46.757Z,5.65
2022-12-03T07:37:17.483Z,5.75
2022-12-03T07:39:47.636Z,5.55
2022-12-03T07:42:15.219Z,5.18
2022-12-03T07:44:42.762Z,4.80
2022-12-03T07:47:10.533Z,5.88
2022-12-03T07:49:38.190Z,6.30
2022-12-03T07:52:07.219Z,6.00
2022-12-03T07:54:34.981Z,7.18
2022-12-03T07:57:02.562Z,8.00
2022-12-03T07:59:30.385Z,8.50
2022-12-03T08:01:58.031Z,8.50
2022-12-03T08:04:25.679Z,8.52
2022-12-03T08:06:53.264Z,7.65
2022-12-03T08:09:20.930Z,7.00
2022-12-03T08:11:49.287Z,5.28
2022-12-03T08:14:20.870Z,5.55
2022-12-03T08:16:48.809Z,5.10
2022-12-03T08:19:17.387Z,4.70
2022-12-03T08:21:45.164Z,5.03
2022-12-03T08:24:17.351Z,4.72
2022-12-03T08:26:46.464Z,4.20
2022-12-03T08:29:16.135Z,4.70
2022-12-03T08:31:48.110Z,4.30
2022-12-03T08:34:23.115Z,4.15
2022-12-03T08:36:52.141Z,3.95
2022-12-03T08:39:30.867Z,4.00
2022-12-03T08:42:43.221Z,4.40
2022-12-03T08:45:30.352Z,4.30
2022-12-03T08:47:58.646Z,3.90
2022-12-03T08:50:33.401Z,3.15
2022-12-03T08:53:21.348Z,2.95
2022-12-03T08:55:52.878Z,3.47
2022-12-03T08:58:31.795Z,2.83
2022-12-03T09:01:19.681Z,3.35
2022-12-03T09:03:51.764Z,3.20
2022-12-03T09:06:19.468Z,2.85
2022-12-03T09:08:47.173Z,2.65
2022-12-03T09:11:15.304Z,2.90
2022-12-03T09:13:43.050Z,3.15
2022-12-03T09:16:10.654Z,3.35
2022-12-03T09:18:38.270Z,2.80
2022-12-03T09:21:05.985Z,3.05
2022-12-03T09:23:33.559Z,2.67
2022-12-03T09:26:01.157Z,3.03
2022-12-03T09:28:28.674Z,2.80
2022-12-03T09:30:56.414Z,2.70
2022-12-03T09:33:24.030Z,2.40
2022-12-03T09:35:51.611Z,2.40
2022-12-03T09:38:19.185Z,2.83
2022-12-03T09:40:46.738Z,2.20
2022-12-03T09:43:14.371Z,2.40
2022-12-03T09:45:41.893Z,2.50
2022-12-03T09:48:09.461Z,2.45
2022-12-03T09:50:40.955Z,2.33
2022-12-03T09:53:11.373Z,2.20
2022-12-03T09:55:39.059Z,2.67
2022-12-03T09:58:12.494Z,2.40
2022-12-03T10:00:40.328Z,1.70
2022-12-03T10:03:11.977Z,2.08
2022-12-03T10:05:45.105Z,1.73
2022-12-03T10:08:20.493Z,2.28
2022-12-03T10:10:49.800Z,2.50
2022-12-03T10:13:29.372Z,2.08
2022-12-03T10:15:58.124Z,2.20
2022-12-03T10:18:30.689Z,1.70
2022-12-03T10:20:58.581Z,2.10
2022-12-03T10:23:27.512Z,2.22
2022-12-03T10:25:56.927Z,2.00
2022-12-03T10:28:32.422Z,2.17
2022-12-03T10:31:00.740Z,2.10
2022-12-03T10:33:32.984Z,2.05
2022-12-03T10:36:21.315Z,2.33
2022-12-03T10:39:06.454Z,2.22
2022-12-03T10:41:34.253Z,1.85
2022-12-03T10:44:12.727Z,2.33
2022-12-03T10:46:40.446Z,1.90
2022-12-03T10:49:18.226Z,2.33
2022-12-03T10:51:47.012Z,2.53
2022-12-03T10:54:17.862Z,2.28
2022-12-03T10:56:45.990Z,2.40
2022-12-03T10:59:19.239Z,2.20
2022-12-03T11:01:47.294Z,2.20
2022-12-03T11:04:35.294Z,2.10
2022-12-03T11:07:03.584Z,2.15
2022-12-03T11:09:32.720Z,2.38
2022-12-03T11:12:18.204Z,2.08
2022-12-03T11:14:53.326Z,2.20
2022-12-03T11:17:40.055Z,7.50
2022-12-03T11:20:12.286Z,16.85
2022-12-03T11:22:41.573Z,3.25
2022-12-03T11:25:24.464Z,3.85
2022-12-03T11:28:10.608Z,3.10
2022-12-03T11:30:56.948Z,2.53
2022-12-03T11:33:26.055Z,3.63
2022-12-03T11:35:59.729Z,4.40
2022-12-03T11:38:40.820Z,2.97
2022-12-03T11:41:14.547Z,3.28
2022-12-03T11:43:50.962Z,3.75
2022-12-03T11:46:37.047Z,3.50
2022-12-03T11:49:19.492Z,2.97
2022-12-03T11:51:47.427Z,2.90
2022-12-03T11:54:19.334Z,4.40
2022-12-03T11:56:49.415Z,5.18
2022-12-03T11:59:17.969Z,3.38
2022-12-03T12:01:45.671Z,2.83
2022-12-03T12:04:34.921Z,2.90
2022-12-03T12:07:02.702Z,3.30
2022-12-03T12:09:49.816Z,2.80
2022-12-03T12:12:29.383Z,3.03
2022-12-03T12:14:57.392Z,2.65
2022-12-03T12:17:31.085Z,5.00
2022-12-03T12:20:12.250Z,3.20
2022-12-03T12:22:39.900Z,3.45
2022-12-03T12:25:26.268Z,2.70
2022-12-03T12:27:55.042Z,2.42
2022-12-03T12:30:23.651Z,2.17
2022-12-03T12:32:52.538Z,3.17
2022-12-03T12:35:24.574Z,16.55
2022-12-03T12:38:15.573Z,17.17
2022-12-03T12:40:45.494Z,9.90
2022-12-03T12:43:16.601Z,5.22
2022-12-03T12:45:48.199Z,5.15
2022-12-03T12:48:21.920Z,3.15
2022-12-03T12:50:51.777Z,3.78
2022-12-03T12:53:32.800Z,3.40
2022-12-03T12:56:00.475Z,3.35
2022-12-03T12:58:30.828Z,3.10
2022-12-03T13:01:00.537Z,3.60
2022-12-03T13:03:30.426Z,3.30
2022-12-03T13:05:58.104Z,3.45
2022-12-03T13:08:28.740Z,3.75
2022-12-03T13:10:58.353Z,4.55
2022-12-03T13:13:25.978Z,4.00
2022-12-03T13:16:02.831Z,5.00
2022-12-03T13:18:50.275Z,4.80
2022-12-03T13:21:22.649Z,4.32
2022-12-03T13:23:54.807Z,6.18
2022-12-03T13:29:14.117Z,4.65
2022-12-03T13:31:44.371Z,2.85
2022-12-03T13:34:14.733Z,3.35
2022-12-03T13:36:43.662Z,4.03
2022-12-03T13:39:17.114Z,5.22
2022-12-03T13:42:03.564Z,4.60
2022-12-03T13:44:32.200Z,3.65
2022-12-03T13:47:11.366Z,3.00
2022-12-03T13:49:38.985Z,3.05
2022-12-03T13:52:16.297Z,3.30
2022-12-03T13:54:47.184Z,2.80
2022-12-03T13:57:14.825Z,3.03
2022-12-03T13:59:42.520Z,2.95
2022-12-03T14:02:10.155Z,3.40
2022-12-03T14:04:38.012Z,3.40
2022-12-03T14:07:06.371Z,3.63
2022-12-03T14:09:33.962Z,6.90
2022-12-03T14:12:20.572Z,7.72
2022-12-03T14:14:48.101Z,8.07
2022-12-03T14:17:15.698Z,8.10
2022-12-03T14:19:43.342Z,10.27
2022-12-03T14:22:11.445Z,10.27
2022-12-03T14:24:40.035Z,10.10
2022-12-03T14:27:07.585Z,10.48
2022-12-03T14:29:35.140Z,10.90
2022-12-03T14:32:02.924Z,10.60
2022-12-03T14:34:30.528Z,10.00
2022-12-03T14:36:58.096Z,10.93
2022-12-03T14:39:26.166Z,10.07
2022-12-03T14:42:12.365Z,10.02
2022-12-03T14:44:44.328Z,12.65
2022-12-03T14:47:12.483Z,11.88
2022-12-03T14:49:40.285Z,11.00
2022-12-03T14:52:11.965Z,10.27
2022-12-03T14:54:42.163Z,9.88
2022-12-03T14:57:11.581Z,10.90
2022-12-03T14:59:40.071Z,10.32
2022-12-03T15:02:08.110Z,9.20
2022-12-03T15:04:37.648Z,9.85
2022-12-03T15:07:05.180Z,10.45
2022-12-03T15:09:32.733Z,10.23
2022-12-03T15:12:00.319Z,10.25
2022-12-03T15:14:27.948Z,8.77
2022-12-03T15:16:55.661Z,10.13
2022-12-03T15:19:23.252Z,2.60
2022-12-03T15:21:50.772Z,2.45
2022-12-03T15:24:18.309Z,2.30
2022-12-03T15:26:45.830Z,2.00
2022-12-03T15:29:13.416Z,7.53
2022-12-03T15:31:41.053Z,3.03
2022-12-03T15:34:08.629Z,23.42
2022-12-03T15:36:36.200Z,30.67
2022-12-03T15:39:04.476Z,23.10
2022-12-03T15:41:32.233Z,15.93
2022-12-03T15:44:03.739Z,14.82
2022-12-03T15:46:31.723Z,13.68
2022-12-03T15:49:03.308Z,13.27
2022-12-03T15:51:30.933Z,12.15
2022-12-03T15:53:58.441Z,12.00
2022-12-03T15:56:26.008Z,11.82
2022-12-03T15:58:53.673Z,11.93
2022-12-03T16:01:21.317Z,11.70
2022-12-03T16:03:48.978Z,12.48
2022-12-03T16:06:18.099Z,11.70
2022-12-03T16:08:45.997Z,11.85
2022-12-03T16:11:13.610Z,12.38
2022-12-03T16:13:41.219Z,11.85
2022-12-03T16:16:08.961Z,10.90
2022-12-03T16:18:36.575Z,10.93
2022-12-03T16:21:04.154Z,12.07
2022-12-03T16:23:31.707Z,11.32
2022-12-03T16:25:59.226Z,11.23
2022-12-03T16:28:27.129Z,11.95
2022-12-03T16:30:54.764Z,11.15
2022-12-03T16:33:27.283Z,10.13
2022-12-03T16:35:55.520Z,11.10
2022-12-03T16:38:23.338Z,11.98
2022-12-03T16:40:50.908Z,10.85
2022-12-03T16:43:18.639Z,10.35
2022-12-03T16:46:02.859Z,10.30
2022-12-03T16:48:30.796Z,11.80
2022-12-03T16:50:58.484Z,10.40
2022-12-03T16:53:27.672Z,10.57
2022-12-03T16:55:55.576Z,13.55
2022-12-03T16:58:23.270Z,13.65
2022-12-03T17:00:54.064Z,12.93
2022-12-03T17:03:22.729Z,13.65
2022-12-03T17:05:50.633Z,12.45
2022-12-03T17:08:18.346Z,12.98
2022-12-03T17:10:46.469Z,13.07
2022-12-03T17:13:14.147Z,13.00
2022-12-03T17:15:42.174Z,12.68
2022-12-03T17:18:12.683Z,13.25
2022-12-03T17:20:46.721Z,12.55
2022-12-03T17:23:18.118Z,13.90
2022-12-03T17:25:45.900Z,15.38
2022-12-03T17:28:13.614Z,14.73
2022-12-03T17:30:41.256Z,15.20
2022-12-03T17:33:09.372Z,14.85
2022-12-03T17:35:40.394Z,14.57
2022-12-03T17:38:12.004Z,15.02
2022-12-03T17:40:42.657Z,14.48
2022-12-03T17:43:12.918Z,14.35
2022-12-03T17:45:41.689Z,14.23
2022-12-03T17:48:11.244Z,14.35
2022-12-03T17:50:38.959Z,15.65
2022-12-03T17:53:10.447Z,15.48
2022-12-03T17:55:44.615Z,14.38
2022-12-03T17:58:14.437Z,16.10
2022-12-03T18:00:42.845Z,14.98
2022-12-03T18:03:15.118Z,15.70
2022-12-03T18:05:42.718Z,17.63
2022-12-03T18:08:10.393Z,19.42
2022-12-03T18:10:38.133Z,17.52
2022-12-03T18:13:05.651Z,17.95
2022-12-03T18:15:33.243Z,19.13
2022-12-03T18:18:01.780Z,16.58
2022-12-03T18:20:29.631Z,20.63
2022-12-03T18:23:01.902Z,19.20
2022-12-03T18:25:29.764Z,19.83
2022-12-03T18:27:57.702Z,51.08
2022-12-03T18:30:25.406Z,29.90
2022-12-03T18:32:52.942Z,34.42
2022-12-03T18:35:20.704Z,34.20
2022-12-03T18:37:49.601Z,24.50
2022-12-03T18:40:22.298Z,19.98
2022-12-03T18:42:49.818Z,18.30
2022-12-03T18:45:17.728Z,21.58
2022-12-03T18:47:45.668Z,21.80
2022-12-03T18:50:13.632Z,19.15
2022-12-03T18:52:41.301Z,18.30
2022-12-03T18:55:09.271Z,19.58
2022-12-03T18:57:36.838Z,20.70
2022-12-03T19:00:11.820Z,21.50
2022-12-03T19:05:28.530Z,22.65
2022-12-03T19:07:57.923Z,21.52
2022-12-03T19:10:25.743Z,20.98
2022-12-03T19:12:53.340Z,22.50
2022-12-03T19:15:20.903Z,21.15
2022-12-03T19:17:49.393Z,21.42
2022-12-03T19:20:17.039Z,21.65
2022-12-03T19:22:44.684Z,21.42
2022-12-03T19:25:12.318Z,20.45
2022-12-03T19:27:39.850Z,19.77
2022-12-03T19:30:07.850Z,19.98
2022-12-03T19:32:35.681Z,20.17
2022-12-03T19:35:05.246Z,18.95
2022-12-03T19:37:36.376Z,19.00
2022-12-03T19:40:04.041Z,18.75
2022-12-03T19:42:31.600Z,18.17
2022-12-03T19:44:59.168Z,18.08
2022-12-03T19:47:26.706Z,19.63
2022-12-03T19:49:54.408Z,21.33
2022-12-03T19:52:22.076Z,19.95
2022-12-03T19:54:49.608Z,19.80
2022-12-03T19:57:23.056Z,19.17
2022-12-03T19:59:51.424Z,21.15
2022-12-03T20:02:19.221Z,18.75
2022-12-03T20:04:46.935Z,22.42
2022-12-03T20:07:14.460Z,19.98
2022-12-03T20:09:42.182Z,19.58
2022-12-03T20:12:09.901Z,16.95
2022-12-03T20:14:37.445Z,17.10
2022-12-03T20:17:05.108Z,17.15
2022-12-03T20:19:32.803Z,15.13
2022-12-03T20:22:02.832Z,13.63
2022-12-03T20:24:30.913Z,14.00
2022-12-03T20:26:58.571Z,14.40
2022-12-03T20:29:26.276Z,13.82
2022-12-03T20:32:00.320Z,16.63
2022-12-03T20:34:28.043Z,13.40
2022-12-03T20:36:55.663Z,16.23
2022-12-03T20:39:23.226Z,13.95
2022-12-03T20:41:50.902Z,14.18
2022-12-03T20:44:18.455Z,14.25
2022-12-03T20:46:46.089Z,15.00
2022-12-03T20:49:13.707Z,15.18
2022-12-03T20:51:42.485Z,16.15
2022-12-03T20:54:10.747Z,17.50
2022-12-03T20:56:42.063Z,16.60
2022-12-03T20:59:12.371Z,18.17
2022-12-03T21:01:42.504Z,17.63
2022-12-03T21:04:11.057Z,20.25
2022-12-03T21:06:39.273Z,19.75
2022-12-03T21:09:08.250Z,19.98
2022-12-03T21:11:39.097Z,20.10
2022-12-03T21:14:07.119Z,21.60
2022-12-03T21:19:39.196Z,20.48
2022-12-03T21:22:07.665Z,13.88
2022-12-03T21:24:39.260Z,8.00
2022-12-03T21:27:14.576Z,4.75
2022-12-03T21:29:49.116Z,3.33
2022-12-03T21:32:16.728Z,2.78
2022-12-03T21:34:44.762Z,2.20
2022-12-03T21:37:12.923Z,2.30
2022-12-03T21:39:40.938Z,1.88
2022-12-03T21:48:34.065Z,13.80
2022-12-03T21:51:14.231Z,16.38
2022-12-03T21:53:43.702Z,19.20
2022-12-03T21:57:01.628Z,19.88
2022-12-03T21:59:29.468Z,20.73
2022-12-03T22:01:57.413Z,19.08
2022-12-03T22:04:25.349Z,5.32
2022-12-03T22:06:52.890Z,3.47
2022-12-03T22:09:26.298Z,3.78
2022-12-03T22:12:00.957Z,1.70
2022-12-03T22:14:31.984Z,2.95
2022-12-03T22:17:43.351Z,1.70
2022-12-03T22:20:11.488Z,2.00
2022-12-03T22:22:39.082Z,2.10
2022-12-03T22:25:15.935Z,1.92
2022-12-03T22:27:45.388Z,2.38
2022-12-03T22:30:13.629Z,2.30
2022-12-03T22:32:51.672Z,2.47
2022-12-03T22:35:25.631Z,1.80
2022-12-03T22:37:53.663Z,1.85
2022-12-03T22:40:21.275Z,1.80
2022-12-03T22:42:51.069Z,1.92
2022-12-03T22:45:18.871Z,1.50
2022-12-03T22:47:46.638Z,1.70
2022-12-03T22:50:14.189Z,1.63
2022-12-03T22:52:41.738Z,1.80
2022-12-03T22:55:09.624Z,1.85
2022-12-03T22:57:37.134Z,2.00
2022-12-03T23:00:08.806Z,1.77
2022-12-03T23:02:36.467Z,1.60
2022-12-03T23:05:04.319Z,1.98
2022-12-03T23:07:31.900Z,1.77
2022-12-03T23:09:59.456Z,1.65
2022-12-03T23:12:27.038Z,1.80
2022-12-03T23:14:55.221Z,1.77
2022-12-03T23:17:22.825Z,1.70
2022-12-03T23:19:50.742Z,2.10
2022-12-03T23:22:18.280Z,1.60
2022-12-03T23:24:45.868Z,1.75
2022-12-03T23:27:13.399Z,1.30
2022-12-03T23:29:40.928Z,1.23
2022-12-03T23:32:08.507Z,1.10
2022-12-03T23:34:36.278Z,1.15
2022-12-03T23:37:03.999Z,1.67
2022-12-03T23:39:31.493Z,1.70
2022-12-03T23:41:59.450Z,1.63
2022-12-03T23:44:28.178Z,1.85
2022-12-03T23:46:55.776Z,1.30
2022-12-03T23:49:23.464Z,1.00
2022-12-03T23:51:51.090Z,0.90
2022-12-03T23:54:18.633Z,0.95
2022-12-03T23:56:46.356Z,1.10
2022-12-03T23:59:14.017Z,0.93
